createdAt,value
2019-03-27T00:00:37.457Z,22.55
2019-03-27T00:03:05.322Z,23.07
2019-03-27T00:05:33.287Z,22.85
2019-03-27T00:08:01.325Z,22.82
2019-03-27T00:10:29.324Z,22.62
2019-03-27T00:12:57.295Z,23.10
2019-03-27T00:15:25.264Z,21.90
2019-03-27T00:17:53.137Z,21.55
2019-03-27T00:20:20.893Z,21.75
2019-03-27T00:22:48.659Z,22.42
2019-03-27T00:25:16.525Z,22.73
2019-03-27T00:27:44.286Z,23.77
2019-03-27T00:30:13.489Z,23.65
2019-03-27T00:32:41.145Z,24.18
2019-03-27T00:35:09.115Z,23.77
2019-03-27T00:37:36.979Z,25.30
2019-03-27T00:40:05.055Z,25.72
2019-03-27T00:42:32.609Z,27.10
2019-03-27T00:45:00.405Z,26.00
2019-03-27T00:47:28.136Z,27.22
2019-03-27T00:49:55.902Z,26.20
2019-03-27T00:52:24.285Z,26.02
2019-03-27T00:54:52.050Z,26.73
2019-03-27T00:57:19.916Z,25.08
2019-03-27T00:59:47.599Z,27.37
2019-03-27T01:02:15.847Z,26.42
2019-03-27T01:04:44.427Z,26.65
2019-03-27T01:07:12.290Z,28.05
2019-03-27T01:09:39.985Z,27.07
2019-03-27T01:12:07.719Z,28.98
2019-03-27T01:14:35.586Z,28.55
2019-03-27T01:17:03.355Z,27.77
2019-03-27T01:19:31.114Z,30.10
2019-03-27T01:21:58.978Z,28.17
2019-03-27T01:24:26.747Z,28.15
2019-03-27T01:26:54.507Z,28.05
2019-03-27T01:29:22.269Z,26.50
2019-03-27T01:31:50.036Z,26.45
2019-03-27T01:34:17.800Z,27.40
2019-03-27T01:36:45.666Z,27.93
2019-03-27T01:39:13.526Z,25.92
2019-03-27T01:41:41.308Z,26.05
2019-03-27T01:44:09.062Z,27.35
2019-03-27T01:46:36.823Z,28.02
2019-03-27T01:49:04.588Z,27.15
2019-03-27T01:51:32.456Z,27.65
2019-03-27T01:54:00.933Z,28.55
2019-03-27T01:56:28.596Z,28.92
2019-03-27T01:58:57.486Z,29.98
2019-03-27T02:01:25.884Z,30.70
2019-03-27T02:03:53.623Z,30.27
2019-03-27T02:06:21.392Z,30.05
2019-03-27T02:08:49.153Z,32.40
2019-03-27T02:11:16.923Z,31.12
2019-03-27T02:13:44.677Z,30.00
2019-03-27T02:16:12.379Z,31.95
2019-03-27T02:18:40.209Z,32.53
2019-03-27T02:21:07.969Z,31.87
2019-03-27T02:23:35.733Z,32.65
2019-03-27T02:26:03.398Z,34.60
2019-03-27T02:28:31.158Z,35.17
2019-03-27T02:30:59.034Z,36.83
2019-03-27T02:33:26.801Z,37.17
2019-03-27T02:35:54.658Z,38.70
2019-03-27T02:38:22.523Z,38.00
2019-03-27T02:40:50.388Z,37.98
2019-03-27T02:43:18.256Z,40.35
2019-03-27T02:45:47.057Z,40.30
2019-03-27T02:48:14.808Z,41.33
2019-03-27T02:50:43.501Z,40.70
2019-03-27T02:53:11.766Z,41.48
2019-03-27T02:55:39.531Z,40.05
2019-03-27T02:58:07.297Z,40.73
2019-03-27T03:00:35.580Z,41.20
2019-03-27T03:03:03.344Z,43.00
2019-03-27T03:05:31.197Z,43.10
2019-03-27T03:07:58.968Z,44.05
2019-03-27T03:10:26.833Z,44.33
2019-03-27T03:12:54.725Z,45.98
2019-03-27T03:15:22.973Z,47.25
2019-03-27T03:17:50.534Z,47.55
2019-03-27T03:20:18.304Z,45.15
2019-03-27T03:22:46.170Z,45.30
2019-03-27T03:25:14.025Z,42.93
2019-03-27T03:27:41.797Z,43.52
2019-03-27T03:30:11.001Z,44.38
2019-03-27T03:32:38.569Z,46.63
2019-03-27T03:35:06.925Z,47.75
2019-03-27T03:37:34.686Z,48.80
2019-03-27T03:40:03.786Z,55.98
2019-03-27T03:42:31.658Z,53.38
2019-03-27T03:44:59.418Z,52.03
2019-03-27T03:47:27.309Z,53.83
2019-03-27T03:49:55.152Z,50.48
2019-03-27T03:52:23.728Z,52.03
2019-03-27T03:54:51.804Z,50.67
2019-03-27T03:57:20.895Z,47.33
2019-03-27T03:59:48.965Z,46.08
2019-03-27T04:02:17.138Z,42.95
2019-03-27T04:04:45.422Z,40.52
2019-03-27T04:07:13.490Z,39.58
2019-03-27T04:09:41.453Z,40.20
2019-03-27T04:12:09.320Z,36.58
2019-03-27T04:14:37.290Z,39.98
2019-03-27T04:17:17.160Z,42.08
2019-03-27T04:19:35.168Z,39.83
2019-03-27T04:22:03.037Z,40.15
2019-03-27T04:24:31.223Z,40.92
2019-03-27T04:26:59.176Z,41.53
2019-03-27T04:29:27.152Z,41.75
2019-03-27T04:31:55.231Z,40.00
2019-03-27T04:34:23.399Z,40.48
2019-03-27T04:36:51.874Z,41.25
2019-03-27T04:39:19.961Z,41.77
2019-03-27T04:41:47.810Z,40.80
2019-03-27T04:44:15.782Z,38.10
2019-03-27T04:46:43.879Z,38.67
2019-03-27T04:49:11.830Z,39.83
2019-03-27T04:51:39.995Z,37.67
2019-03-27T04:54:09.087Z,38.38
2019-03-27T04:56:37.160Z,38.23
2019-03-27T04:59:05.227Z,38.38
2019-03-27T05:01:33.709Z,38.70
2019-03-27T05:04:02.010Z,36.95
2019-03-27T05:06:29.950Z,36.00
2019-03-27T05:08:57.923Z,36.83
2019-03-27T05:11:25.889Z,37.17
2019-03-27T05:13:54.682Z,40.23
2019-03-27T05:16:22.744Z,38.88
2019-03-27T05:18:50.714Z,37.88
2019-03-27T05:21:18.684Z,37.25
2019-03-27T05:23:46.750Z,37.98
2019-03-27T05:26:14.725Z,36.75
2019-03-27T05:28:42.793Z,39.63
2019-03-27T05:31:10.867Z,36.95
2019-03-27T05:33:39.040Z,40.88
2019-03-27T05:36:07.108Z,41.42
2019-03-27T05:38:35.287Z,42.78
2019-03-27T05:41:03.354Z,40.15
2019-03-27T05:43:31.838Z,38.23
2019-03-27T05:46:00.009Z,34.80
2019-03-27T05:48:27.979Z,35.20
2019-03-27T05:50:56.049Z,32.30
2019-03-27T05:53:24.631Z,31.70
2019-03-27T05:55:52.593Z,25.25
2019-03-27T05:58:20.510Z,30.50
2019-03-27T06:00:48.847Z,30.85
2019-03-27T06:03:16.813Z,28.98
2019-03-27T06:05:44.888Z,28.98
2019-03-27T06:08:12.955Z,32.98
2019-03-27T06:10:41.141Z,29.55
2019-03-27T06:13:09.103Z,33.78
2019-03-27T06:15:36.960Z,31.12
2019-03-27T06:18:12.916Z,26.85
2019-03-27T06:20:35.563Z,27.32
2019-03-27T06:23:03.433Z,24.57
2019-03-27T06:28:25.989Z,32.20
2019-03-27T06:30:53.855Z,35.58
2019-03-27T06:33:21.824Z,33.30
2019-03-27T06:35:50.528Z,33.53
2019-03-27T06:38:18.581Z,31.57
2019-03-27T06:40:46.447Z,32.20
2019-03-27T06:43:15.435Z,23.83
2019-03-27T06:45:43.510Z,17.00
2019-03-27T06:48:11.478Z,16.45
2019-03-27T06:50:39.447Z,18.32
2019-03-27T06:53:07.417Z,17.52
2019-03-27T06:55:35.384Z,19.77
2019-03-27T06:58:03.354Z,22.17
2019-03-27T07:00:36.236Z,21.02
2019-03-27T07:03:05.639Z,20.97
2019-03-27T07:05:33.501Z,22.32
2019-03-27T07:08:01.469Z,19.37
2019-03-27T07:10:29.446Z,23.30
2019-03-27T07:12:57.408Z,23.05
2019-03-27T07:15:25.379Z,22.93
2019-03-27T07:17:53.346Z,19.57
2019-03-27T07:20:21.221Z,19.32
2019-03-27T07:22:49.184Z,21.82
2019-03-27T07:25:17.260Z,18.32
2019-03-27T07:27:45.223Z,16.05
2019-03-27T07:30:15.029Z,14.07
2019-03-27T07:32:43.210Z,10.15
2019-03-27T07:35:11.072Z,10.43
2019-03-27T07:37:39.145Z,7.33
2019-03-27T07:40:07.107Z,7.72
2019-03-27T07:42:35.085Z,8.28
2019-03-27T07:45:05.610Z,8.15
2019-03-27T07:47:33.270Z,6.40
2019-03-27T07:50:01.449Z,6.20
2019-03-27T07:52:29.621Z,5.80
2019-03-27T07:54:57.485Z,5.83
2019-03-27T07:57:25.559Z,7.67
2019-03-27T07:59:53.531Z,6.53
2019-03-27T08:02:21.813Z,6.28
2019-03-27T08:04:50.180Z,4.70
2019-03-27T08:07:26.813Z,6.80
2019-03-27T08:09:47.854Z,7.45
2019-03-27T08:12:15.829Z,7.12
2019-03-27T08:14:43.893Z,7.08
2019-03-27T08:17:11.656Z,5.58
2019-03-27T08:19:39.728Z,5.42
2019-03-27T08:22:07.698Z,5.22
2019-03-27T08:24:35.567Z,6.20
2019-03-27T08:27:03.525Z,5.80
2019-03-27T08:29:31.498Z,7.15
2019-03-27T08:31:59.467Z,8.13
2019-03-27T08:34:27.335Z,6.03
2019-03-27T08:36:55.611Z,6.62
2019-03-27T08:39:23.788Z,7.05
2019-03-27T08:41:51.754Z,6.50
2019-03-27T08:44:19.724Z,6.95
2019-03-27T08:46:47.686Z,6.33
2019-03-27T08:49:21.871Z,6.97
2019-03-27T08:51:45.264Z,6.83
2019-03-27T08:54:13.543Z,6.65
2019-03-27T08:56:41.611Z,5.90
2019-03-27T08:59:11.940Z,6.47
2019-03-27T09:01:40.308Z,6.60
2019-03-27T09:04:09.002Z,7.20
2019-03-27T09:06:36.970Z,7.03
2019-03-27T09:09:06.369Z,6.97
2019-03-27T09:11:34.441Z,7.12
2019-03-27T09:14:02.203Z,6.22
2019-03-27T09:16:30.167Z,6.85
2019-03-27T09:18:58.141Z,6.20
2019-03-27T09:21:26.106Z,6.90
2019-03-27T09:23:53.974Z,7.70
2019-03-27T09:26:21.945Z,6.80
2019-03-27T09:28:50.014Z,6.83
2019-03-27T09:31:18.100Z,7.95
2019-03-27T09:33:46.255Z,8.05
2019-03-27T09:36:14.432Z,8.03
2019-03-27T09:38:42.497Z,8.53
2019-03-27T09:41:10.267Z,7.97
2019-03-27T09:43:38.338Z,8.18
2019-03-27T09:46:06.302Z,8.65
2019-03-27T09:48:34.374Z,8.28
2019-03-27T09:51:03.063Z,8.38
2019-03-27T09:53:31.649Z,6.87
2019-03-27T09:55:59.633Z,9.18
2019-03-27T09:58:28.715Z,5.95
2019-03-27T10:00:58.112Z,6.50
2019-03-27T10:03:25.670Z,6.25
2019-03-27T10:05:53.739Z,5.78
2019-03-27T10:08:21.712Z,7.03
2019-03-27T10:10:49.880Z,7.40
2019-03-27T10:13:18.267Z,8.60
2019-03-27T10:15:46.227Z,8.65
2019-03-27T10:18:14.198Z,35.60
2019-03-27T10:20:42.161Z,7.28
2019-03-27T10:23:10.136Z,6.72
2019-03-27T10:25:38.103Z,7.30
2019-03-27T10:28:06.171Z,7.83
2019-03-27T10:30:34.146Z,8.20
2019-03-27T10:33:02.167Z,7.50
2019-03-27T10:35:30.394Z,7.80
2019-03-27T10:37:58.353Z,8.33
2019-03-27T10:40:26.325Z,8.10
2019-03-27T10:42:54.493Z,7.33
2019-03-27T10:45:22.369Z,7.67
2019-03-27T10:47:50.333Z,7.67
2019-03-27T10:50:18.387Z,6.85
2019-03-27T10:52:46.990Z,7.17
2019-03-27T10:55:14.643Z,6.78
2019-03-27T10:57:42.741Z,7.12
2019-03-27T11:00:10.790Z,7.75
2019-03-27T11:02:40.393Z,7.92
2019-03-27T11:05:08.670Z,8.18
2019-03-27T11:07:37.461Z,7.72
2019-03-27T11:10:06.690Z,8.35
2019-03-27T11:12:34.425Z,9.83
2019-03-27T11:15:05.164Z,11.00
2019-03-27T11:17:32.712Z,7.75
2019-03-27T11:20:00.786Z,8.70
2019-03-27T11:22:28.657Z,10.03
2019-03-27T11:24:56.619Z,10.18
2019-03-27T11:27:24.689Z,10.25
2019-03-27T11:29:52.597Z,9.75
2019-03-27T11:32:20.831Z,10.35
2019-03-27T11:34:48.898Z,8.43
2019-03-27T11:37:16.974Z,10.75
2019-03-27T11:39:44.939Z,9.58
2019-03-27T11:42:12.906Z,10.35
2019-03-27T11:44:40.876Z,9.80
2019-03-27T11:47:08.845Z,9.83
2019-03-27T11:49:36.820Z,10.88
2019-03-27T11:52:04.783Z,10.03
2019-03-27T11:54:34.183Z,9.93
2019-03-27T11:57:01.723Z,10.13
2019-03-27T11:59:29.927Z,10.32
2019-03-27T12:01:58.406Z,9.78
2019-03-27T12:04:26.569Z,10.38
2019-03-27T12:06:54.544Z,13.35
2019-03-27T12:09:22.510Z,10.65
2019-03-27T12:11:50.376Z,11.80
2019-03-27T12:14:18.564Z,15.00
2019-03-27T12:16:49.751Z,11.30
2019-03-27T12:19:16.225Z,11.97
2019-03-27T12:21:45.222Z,12.13
2019-03-27T12:24:13.390Z,15.38
2019-03-27T12:26:41.256Z,16.42
2019-03-27T12:29:09.231Z,16.48
2019-03-27T12:31:37.295Z,17.40
2019-03-27T12:34:05.268Z,18.90
2019-03-27T12:36:33.341Z,17.52
2019-03-27T12:39:01.309Z,17.85
2019-03-27T12:41:29.397Z,19.75
2019-03-27T12:43:57.354Z,21.12
2019-03-27T12:46:25.417Z,20.68
2019-03-27T12:48:53.282Z,24.00
2019-03-27T12:51:21.463Z,23.57
2019-03-27T12:53:49.939Z,24.92
2019-03-27T12:56:17.701Z,28.42
2019-03-27T12:58:45.774Z,30.12
2019-03-27T13:01:14.248Z,30.23
2019-03-27T13:03:44.508Z,28.60
2019-03-27T13:06:11.423Z,23.70
2019-03-27T13:08:39.488Z,20.70
2019-03-27T13:11:07.356Z,18.48
2019-03-27T13:13:35.220Z,19.45
2019-03-27T13:16:03.197Z,19.87
2019-03-27T13:18:31.155Z,18.40
2019-03-27T13:20:59.538Z,18.60
2019-03-27T13:23:27.717Z,19.10
2019-03-27T13:25:55.787Z,19.35
2019-03-27T13:28:23.751Z,18.62
2019-03-27T13:30:51.715Z,18.70
2019-03-27T13:33:19.686Z,17.17
2019-03-27T13:35:47.863Z,19.25
2019-03-27T13:38:15.828Z,15.88
2019-03-27T13:40:43.797Z,17.70
2019-03-27T13:43:11.769Z,18.95
2019-03-27T13:45:39.948Z,19.32
2019-03-27T13:48:07.913Z,18.62
2019-03-27T13:50:35.886Z,18.27
2019-03-27T13:53:04.260Z,17.62
2019-03-27T13:55:34.947Z,16.57
2019-03-27T13:58:02.035Z,16.50
2019-03-27T14:00:30.516Z,18.02
2019-03-27T14:02:58.584Z,16.93
2019-03-27T14:05:26.553Z,15.58
2019-03-27T14:07:54.619Z,16.00
2019-03-27T14:10:22.804Z,15.88
2019-03-27T14:12:50.986Z,17.20
2019-03-27T14:15:19.464Z,20.23
2019-03-27T14:17:47.429Z,17.65
2019-03-27T14:20:15.388Z,19.70
2019-03-27T14:22:43.357Z,24.90
2019-03-27T14:25:11.531Z,21.55
2019-03-27T14:27:39.498Z,20.97
2019-03-27T14:30:10.653Z,23.18
2019-03-27T14:32:38.610Z,21.35
2019-03-27T14:35:07.093Z,17.77
2019-03-27T14:37:34.954Z,22.75
2019-03-27T14:40:05.890Z,22.55
2019-03-27T14:42:33.456Z,24.43
2019-03-27T14:45:01.429Z,27.15
2019-03-27T14:47:29.388Z,23.75
2019-03-27T14:49:57.455Z,25.75
2019-03-27T14:52:25.938Z,22.67
2019-03-27T14:54:53.655Z,21.07
2019-03-27T14:57:21.669Z,24.35
2019-03-27T14:59:49.760Z,23.47
2019-03-27T15:02:18.323Z,23.47
2019-03-27T15:04:46.401Z,22.15
2019-03-27T15:07:14.364Z,20.65
2019-03-27T15:09:42.340Z,19.85
2019-03-27T15:12:10.407Z,19.30
2019-03-27T15:14:38.576Z,21.57
2019-03-27T15:17:06.446Z,28.07
2019-03-27T15:19:35.449Z,31.97
2019-03-27T15:22:03.425Z,30.12
2019-03-27T15:24:31.378Z,25.92
2019-03-27T15:26:59.452Z,22.50
2019-03-27T15:29:27.428Z,22.77
2019-03-27T15:31:55.378Z,23.32
2019-03-27T15:34:23.451Z,23.75
2019-03-27T15:36:51.531Z,22.02
2019-03-27T15:39:19.493Z,22.10
2019-03-27T15:41:47.365Z,18.17
2019-03-27T15:44:15.541Z,20.95
2019-03-27T15:46:43.513Z,20.27
2019-03-27T15:49:11.368Z,16.07
2019-03-27T15:51:40.535Z,19.17
2019-03-27T15:54:09.353Z,19.73
2019-03-27T15:56:38.561Z,22.15
2019-03-27T15:59:06.525Z,23.70
2019-03-27T16:01:34.999Z,23.05
2019-03-27T16:04:02.817Z,24.45
2019-03-27T16:06:32.208Z,20.12
2019-03-27T16:09:00.030Z,20.02
2019-03-27T16:11:28.107Z,15.85
2019-03-27T16:13:56.069Z,17.12
2019-03-27T16:16:24.448Z,21.30
2019-03-27T16:18:53.128Z,20.20
2019-03-27T16:21:21.208Z,19.45
2019-03-27T16:23:49.274Z,15.40
2019-03-27T16:26:17.347Z,16.67
2019-03-27T16:28:45.315Z,15.93
2019-03-27T16:31:13.181Z,16.10
2019-03-27T16:33:41.150Z,15.32
2019-03-27T16:36:09.321Z,13.25
2019-03-27T16:38:37.494Z,15.75
2019-03-27T16:41:05.370Z,14.90
2019-03-27T16:43:33.432Z,13.15
2019-03-27T16:46:01.407Z,12.45
2019-03-27T16:48:29.897Z,11.25
2019-03-27T16:50:58.058Z,10.10
2019-03-27T16:53:26.433Z,10.28
2019-03-27T16:55:54.500Z,10.23
2019-03-27T16:58:22.413Z,10.70
2019-03-27T17:00:50.750Z,9.28
2019-03-27T17:03:19.636Z,10.45
2019-03-27T17:05:53.833Z,10.68
2019-03-27T17:08:17.003Z,10.13
2019-03-27T17:10:44.981Z,16.80
2019-03-27T17:13:12.946Z,17.82
2019-03-27T17:15:40.913Z,17.25
2019-03-27T17:18:08.884Z,16.75
2019-03-27T17:20:37.571Z,17.87
2019-03-27T17:23:17.560Z,18.60
2019-03-27T17:25:35.348Z,19.00
2019-03-27T17:28:03.421Z,19.95
2019-03-27T17:30:32.122Z,19.45
2019-03-27T17:33:00.284Z,19.32
2019-03-27T17:35:28.701Z,23.25
2019-03-27T17:37:56.730Z,19.67
2019-03-27T17:40:24.797Z,20.10
2019-03-27T17:42:52.798Z,20.85
2019-03-27T17:45:22.396Z,20.23
2019-03-27T17:47:50.345Z,18.00
2019-03-27T17:50:18.411Z,16.70
2019-03-27T17:52:46.594Z,15.45
2019-03-27T17:55:14.664Z,16.15
2019-03-27T17:57:42.626Z,18.95
2019-03-27T18:00:14.896Z,16.82
2019-03-27T18:02:43.182Z,18.52
2019-03-27T18:05:10.939Z,19.80
2019-03-27T18:07:39.009Z,21.23
2019-03-27T18:10:06.876Z,21.23
2019-03-27T18:12:34.947Z,18.87
2019-03-27T18:15:05.883Z,20.10
2019-03-27T18:17:33.855Z,19.52
2019-03-27T18:20:01.824Z,18.32
2019-03-27T18:22:30.403Z,15.90
2019-03-27T18:24:59.090Z,17.57
2019-03-27T18:27:27.064Z,18.20
2019-03-27T18:29:55.025Z,16.05
2019-03-27T18:32:23.098Z,13.85
2019-03-27T18:34:51.170Z,14.70
2019-03-27T18:37:19.240Z,12.68
2019-03-27T18:39:47.292Z,13.30
2019-03-27T18:42:15.382Z,15.13
2019-03-27T18:44:43.345Z,14.13
2019-03-27T18:47:11.417Z,12.73
2019-03-27T18:49:39.285Z,14.05
2019-03-27T18:52:07.458Z,13.43
2019-03-27T18:54:35.938Z,12.85
2019-03-27T18:57:04.829Z,13.28
2019-03-27T18:59:32.895Z,12.78
2019-03-27T19:02:01.280Z,14.03
2019-03-27T19:04:29.242Z,14.10
2019-03-27T19:06:58.684Z,13.05
2019-03-27T19:09:26.823Z,13.75
2019-03-27T19:11:54.603Z,15.13
2019-03-27T19:14:22.757Z,14.40
2019-03-27T19:16:50.724Z,14.83
2019-03-27T19:19:18.691Z,15.40
2019-03-27T19:21:46.868Z,17.30
2019-03-27T19:24:16.704Z,16.62
2019-03-27T19:26:44.340Z,18.00
2019-03-27T19:29:12.315Z,18.82
2019-03-27T19:31:40.176Z,18.75
2019-03-27T19:34:08.261Z,18.85
2019-03-27T19:36:36.625Z,19.15
2019-03-27T19:39:06.847Z,20.23
2019-03-27T19:41:36.872Z,19.27
2019-03-27T19:44:05.135Z,19.15
2019-03-27T19:46:33.205Z,19.07
2019-03-27T19:49:01.181Z,19.50
2019-03-27T19:51:29.247Z,19.98
2019-03-27T19:53:57.424Z,18.92
2019-03-27T19:56:25.289Z,19.57
2019-03-27T19:58:53.154Z,20.95
2019-03-27T20:01:21.737Z,18.87
2019-03-27T20:03:49.823Z,19.85
2019-03-27T20:06:17.779Z,22.17
2019-03-27T20:08:45.847Z,18.82
2019-03-27T20:11:13.814Z,19.48
2019-03-27T20:13:41.785Z,18.98
2019-03-27T20:16:09.750Z,19.37
2019-03-27T20:18:37.929Z,20.12
2019-03-27T20:21:05.903Z,18.82
2019-03-27T20:23:34.580Z,18.98
2019-03-27T20:26:02.858Z,19.55
2019-03-27T20:28:30.719Z,18.48
2019-03-27T20:30:58.892Z,19.50
2019-03-27T20:33:27.068Z,19.80
2019-03-27T20:35:55.041Z,21.65
2019-03-27T20:38:23.246Z,19.20
2019-03-27T20:40:51.178Z,21.15
2019-03-27T20:43:19.349Z,20.10
2019-03-27T20:45:47.323Z,23.60
2019-03-27T20:48:15.289Z,22.45
2019-03-27T20:50:43.354Z,23.18
2019-03-27T20:53:11.530Z,22.67
2019-03-27T20:55:39.396Z,20.85
2019-03-27T20:58:07.467Z,19.82
2019-03-27T21:00:35.855Z,17.37
2019-03-27T21:03:03.612Z,17.52
2019-03-27T21:05:34.870Z,16.87
2019-03-27T21:08:01.190Z,15.05
2019-03-27T21:10:29.258Z,16.07
2019-03-27T21:12:57.432Z,15.45
2019-03-27T21:15:25.192Z,15.85
2019-03-27T21:17:53.170Z,16.35
2019-03-27T21:20:21.027Z,15.80
2019-03-27T21:22:49.002Z,16.85
2019-03-27T21:25:17.069Z,15.80
2019-03-27T21:27:45.042Z,14.90
2019-03-27T21:30:13.004Z,14.05
2019-03-27T21:32:41.079Z,15.93
2019-03-27T21:35:09.254Z,15.15
2019-03-27T21:37:37.217Z,14.07
2019-03-27T21:40:05.496Z,14.38
2019-03-27T21:42:33.256Z,14.90
2019-03-27T21:45:01.231Z,14.25
2019-03-27T21:47:29.198Z,14.30
2019-03-27T21:49:57.270Z,13.22
2019-03-27T21:52:26.465Z,12.75
2019-03-27T21:54:54.637Z,13.62
2019-03-27T21:57:22.605Z,13.53
2019-03-27T21:59:50.614Z,13.65
2019-03-27T22:02:19.772Z,13.50
2019-03-27T22:04:47.740Z,14.40
2019-03-27T22:07:19.187Z,19.85
2019-03-27T22:09:45.724Z,14.33
2019-03-27T22:12:14.720Z,13.78
2019-03-27T22:14:42.895Z,15.18
2019-03-27T22:17:10.964Z,15.53
2019-03-27T22:19:39.036Z,15.72
2019-03-27T22:22:07.010Z,17.73
2019-03-27T22:24:34.973Z,18.27
2019-03-27T22:27:02.937Z,18.55
2019-03-27T22:29:31.008Z,19.15
2019-03-27T22:31:58.982Z,17.85
2019-03-27T22:34:27.049Z,18.75
2019-03-27T22:36:55.117Z,17.40
2019-03-27T22:39:23.087Z,19.23
2019-03-27T22:41:51.157Z,17.95
2019-03-27T22:44:19.127Z,19.15
2019-03-27T22:46:47.200Z,18.57
2019-03-27T22:49:15.162Z,17.82
2019-03-27T22:51:43.233Z,17.98
2019-03-27T22:54:11.517Z,18.70
2019-03-27T22:56:39.069Z,18.92
2019-03-27T22:59:07.036Z,20.90
2019-03-27T23:01:43.097Z,18.70
2019-03-27T23:04:10.863Z,18.17
2019-03-27T23:06:38.848Z,18.75
2019-03-27T23:09:06.904Z,19.57
2019-03-27T23:11:35.073Z,19.95
2019-03-27T23:14:03.351Z,19.52
2019-03-27T23:16:31.316Z,18.75
2019-03-27T23:18:59.082Z,19.20
2019-03-27T23:21:26.946Z,17.10
2019-03-27T23:23:54.815Z,18.20
2019-03-27T23:26:22.681Z,18.77
2019-03-27T23:28:50.447Z,19.50
2019-03-27T23:31:18.309Z,18.95
2019-03-27T23:33:46.177Z,17.95
2019-03-27T23:36:14.967Z,17.87
2019-03-27T23:38:42.834Z,18.30
2019-03-27T23:41:10.594Z,17.37
2019-03-27T23:43:38.360Z,17.27
2019-03-27T23:46:06.121Z,17.15
2019-03-27T23:48:33.988Z,17.00
2019-03-27T23:51:01.955Z,17.15
2019-03-27T23:53:30.331Z,16.50
2019-03-27T23:55:58.613Z,16.37
2019-03-27T23:58:26.267Z,27.45
